sensor_id;sensor_type;location;lat;lon;timestamp;pressure;altitude;pressure_sealevel;temperature
79172;BMP280;68597;53.238;-1.418;2023-06-04T00:02:14;101850.78;;;10.46
79172;BMP280;68597;53.238;-1.418;2023-06-04T00:04:40;101850.97;;;10.42
79172;BMP280;68597;53.238;-1.418;2023-06-04T00:07:06;101844.13;;;10.38
79172;BMP280;68597;53.238;-1.418;2023-06-04T00:09:32;101844.84;;;10.33
79172;BMP280;68597;53.238;-1.418;2023-06-04T00:11:58;101843.03;;;10.30
79172;BMP280;68597;53.238;-1.418;2023-06-04T00:14:26;101846.53;;;10.25
79172;BMP280;68597;53.238;-1.418;2023-06-04T00:16:52;101846.78;;;10.21
79172;BMP280;68597;53.238;-1.418;2023-06-04T00:19:17;101836.09;;;10.20
79172;BMP280;68597;53.238;-1.418;2023-06-04T00:21:45;101837.09;;;10.17
79172;BMP280;68597;53.238;-1.418;2023-06-04T00:24:11;101831.69;;;10.08
79172;BMP280;68597;53.238;-1.418;2023-06-04T00:26:37;101834.78;;;10.10
79172;BMP280;68597;53.238;-1.418;2023-06-04T00:29:03;101839.84;;;10.06
79172;BMP280;68597;53.238;-1.418;2023-06-04T00:31:30;101835.22;;;10.03
79172;BMP280;68597;53.238;-1.418;2023-06-04T00:33:56;101836.47;;;10.02
79172;BMP280;68597;53.238;-1.418;2023-06-04T00:36:22;101836.94;;;10.00
79172;BMP280;68597;53.238;-1.418;2023-06-04T00:38:48;101826.03;;;9.96
79172;BMP280;68597;53.238;-1.418;2023-06-04T00:41:14;101813.69;;;9.77
79172;BMP280;68597;53.238;-1.418;2023-06-04T00:43:40;101820.06;;;9.83
79172;BMP280;68597;53.238;-1.418;2023-06-04T00:46:06;101836.09;;;9.88
79172;BMP280;68597;53.238;-1.418;2023-06-04T00:48:34;101834.31;;;9.85
79172;BMP280;68597;53.238;-1.418;2023-06-04T00:51:00;101833.75;;;9.81
79172;BMP280;68597;53.238;-1.418;2023-06-04T00:53:26;101840.63;;;9.80
79172;BMP280;68597;53.238;-1.418;2023-06-04T00:55:52;101836.00;;;9.77
79172;BMP280;68597;53.238;-1.418;2023-06-04T00:58:18;101827.84;;;9.74
79172;BMP280;68597;53.238;-1.418;2023-06-04T01:00:44;101826.81;;;9.71
79172;BMP280;68597;53.238;-1.418;2023-06-04T01:03:14;101831.84;;;9.67
79172;BMP280;68597;53.238;-1.418;2023-06-04T01:05:48;101833.56;;;9.65
79172;BMP280;68597;53.238;-1.418;2023-06-04T01:08:17;101835.38;;;9.62
79172;BMP280;68597;53.238;-1.418;2023-06-04T01:10:51;101834.78;;;9.58
79172;BMP280;68597;53.238;-1.418;2023-06-04T01:13:17;101830.97;;;9.56
79172;BMP280;68597;53.238;-1.418;2023-06-04T01:15:43;101833.50;;;9.54
79172;BMP280;68597;53.238;-1.418;2023-06-04T01:18:09;101834.25;;;9.54
79172;BMP280;68597;53.238;-1.418;2023-06-04T01:20:38;101826.38;;;9.53
79172;BMP280;68597;53.238;-1.418;2023-06-04T01:23:16;101826.88;;;9.51
79172;BMP280;68597;53.238;-1.418;2023-06-04T01:25:45;101825.81;;;9.48
79172;BMP280;68597;53.238;-1.418;2023-06-04T01:28:12;101826.03;;;9.45
79172;BMP280;68597;53.238;-1.418;2023-06-04T01:30:40;101800.00;;;9.28
79172;BMP280;68597;53.238;-1.418;2023-06-04T01:33:06;101824.72;;;9.40
79172;BMP280;68597;53.238;-1.418;2023-06-04T01:35:32;101832.03;;;9.38
79172;BMP280;68597;53.238;-1.418;2023-06-04T01:37:58;101842.16;;;9.35
79172;BMP280;68597;53.238;-1.418;2023-06-04T01:40:26;101837.09;;;9.34
79172;BMP280;68597;53.238;-1.418;2023-06-04T01:42:52;101827.13;;;9.27
79172;BMP280;68597;53.238;-1.418;2023-06-04T01:45:20;101844.59;;;9.28
79172;BMP280;68597;53.238;-1.418;2023-06-04T01:47:46;101820.44;;;9.19
79172;BMP280;68597;53.238;-1.418;2023-06-04T01:50:13;101826.09;;;9.25
79172;BMP280;68597;53.238;-1.418;2023-06-04T01:52:40;101829.09;;;9.21
79172;BMP280;68597;53.238;-1.418;2023-06-04T01:55:08;101837.91;;;9.20
79172;BMP280;68597;53.238;-1.418;2023-06-04T01:57:37;101836.38;;;9.19
79172;BMP280;68597;53.238;-1.418;2023-06-04T02:00:04;101836.63;;;9.15
79172;BMP280;68597;53.238;-1.418;2023-06-04T02:02:39;101835.25;;;9.11
79172;BMP280;68597;53.238;-1.418;2023-06-04T02:05:07;101840.56;;;9.09
79172;BMP280;68597;53.238;-1.418;2023-06-04T02:07:33;101830.84;;;8.99
79172;BMP280;68597;53.238;-1.418;2023-06-04T02:09:59;101824.69;;;8.94
79172;BMP280;68597;53.238;-1.418;2023-06-04T02:12:25;101840.69;;;8.99
79172;BMP280;68597;53.238;-1.418;2023-06-04T02:14:54;101838.44;;;8.98
79172;BMP280;68597;53.238;-1.418;2023-06-04T02:17:19;101833.81;;;8.95
79172;BMP280;68597;53.238;-1.418;2023-06-04T02:19:45;101840.63;;;8.94
79172;BMP280;68597;53.238;-1.418;2023-06-04T02:22:11;101845.16;;;8.91
79172;BMP280;68597;53.238;-1.418;2023-06-04T02:24:37;101824.84;;;8.85
79172;BMP280;68597;53.238;-1.418;2023-06-04T02:27:04;101835.75;;;8.89
79172;BMP280;68597;53.238;-1.418;2023-06-04T02:29:30;101842.09;;;8.89
79172;BMP280;68597;53.238;-1.418;2023-06-04T02:31:58;101845.94;;;8.92
79172;BMP280;68597;53.238;-1.418;2023-06-04T02:34:24;101845.72;;;8.95
79172;BMP280;68597;53.238;-1.418;2023-06-04T02:36:50;101847.81;;;9.01
79172;BMP280;68597;53.238;-1.418;2023-06-04T02:39:15;101849.91;;;9.06
79172;BMP280;68597;53.238;-1.418;2023-06-04T02:41:41;101844.91;;;9.10
79172;BMP280;68597;53.238;-1.418;2023-06-04T02:44:08;101849.31;;;9.16
79172;BMP280;68597;53.238;-1.418;2023-06-04T02:46:34;101849.06;;;9.20
79172;BMP280;68597;53.238;-1.418;2023-06-04T02:49:01;101850.41;;;9.24
79172;BMP280;68597;53.238;-1.418;2023-06-04T02:51:27;101845.59;;;9.25
79172;BMP280;68597;53.238;-1.418;2023-06-04T02:53:54;101838.78;;;9.26
79172;BMP280;68597;53.238;-1.418;2023-06-04T02:56:20;101845.59;;;9.25
79172;BMP280;68597;53.238;-1.418;2023-06-04T02:58:49;101847.13;;;9.26
79172;BMP280;68597;53.238;-1.418;2023-06-04T03:01:18;101858.28;;;9.26
79172;BMP280;68597;53.238;-1.418;2023-06-04T03:03:44;101857.28;;;9.29
79172;BMP280;68597;53.238;-1.418;2023-06-04T03:06:11;101843.91;;;9.33
79172;BMP280;68597;53.238;-1.418;2023-06-04T03:08:37;101839.16;;;9.39
79172;BMP280;68597;53.238;-1.418;2023-06-04T03:11:03;101828.97;;;9.36
79172;BMP280;68597;53.238;-1.418;2023-06-04T03:13:29;101834.66;;;9.47
79172;BMP280;68597;53.238;-1.418;2023-06-04T03:15:55;101841.59;;;9.52
79172;BMP280;68597;53.238;-1.418;2023-06-04T03:18:21;101845.94;;;9.58
79172;BMP280;68597;53.238;-1.418;2023-06-04T03:20:47;101836.88;;;9.63
79172;BMP280;68597;53.238;-1.418;2023-06-04T03:23:15;101836.44;;;9.70
79172;BMP280;68597;53.238;-1.418;2023-06-04T03:25:40;101833.22;;;9.77
79172;BMP280;68597;53.238;-1.418;2023-06-04T03:28:10;101831.53;;;9.85
79172;BMP280;68597;53.238;-1.418;2023-06-04T03:30:36;101829.53;;;9.91
79172;BMP280;68597;53.238;-1.418;2023-06-04T03:33:04;101841.78;;;10.00
79172;BMP280;68597;53.238;-1.418;2023-06-04T03:35:30;101838.53;;;10.07
79172;BMP280;68597;53.238;-1.418;2023-06-04T03:37:56;101830.44;;;10.09
79172;BMP280;68597;53.238;-1.418;2023-06-04T03:40:24;101843.22;;;10.21
79172;BMP280;68597;53.238;-1.418;2023-06-04T03:42:50;101842.78;;;10.28
79172;BMP280;68597;53.238;-1.418;2023-06-04T03:45:18;101835.44;;;10.36
79172;BMP280;68597;53.238;-1.418;2023-06-04T03:47:46;101842.13;;;10.44
79172;BMP280;68597;53.238;-1.418;2023-06-04T03:50:12;101840.13;;;10.50
79172;BMP280;68597;53.238;-1.418;2023-06-04T03:52:38;101838.13;;;10.56
79172;BMP280;68597;53.238;-1.418;2023-06-04T03:55:06;101832.09;;;10.63
79172;BMP280;68597;53.238;-1.418;2023-06-04T03:57:34;101837.22;;;10.70
79172;BMP280;68597;53.238;-1.418;2023-06-04T04:00:01;101838.25;;;10.78
79172;BMP280;68597;53.238;-1.418;2023-06-04T04:02:27;101835.00;;;10.85
79172;BMP280;68597;53.238;-1.418;2023-06-04T04:04:53;101831.72;;;10.92
79172;BMP280;68597;53.238;-1.418;2023-06-04T04:07:19;101825.38;;;10.97
79172;BMP280;68597;53.238;-1.418;2023-06-04T04:09:46;101830.75;;;11.07
79172;BMP280;68597;53.238;-1.418;2023-06-04T04:12:12;101838.16;;;11.15
79172;BMP280;68597;53.238;-1.418;2023-06-04T04:14:41;101833.63;;;11.23
79172;BMP280;68597;53.238;-1.418;2023-06-04T04:17:07;101832.34;;;11.30
79172;BMP280;68597;53.238;-1.418;2023-06-04T04:19:33;101840.22;;;11.37
79172;BMP280;68597;53.238;-1.418;2023-06-04T04:21:59;101844.09;;;11.45
79172;BMP280;68597;53.238;-1.418;2023-06-04T04:24:27;101845.63;;;11.51
79172;BMP280;68597;53.238;-1.418;2023-06-04T04:26:57;101840.78;;;11.58
79172;BMP280;68597;53.238;-1.418;2023-06-04T04:29:24;101832.91;;;11.56
79172;BMP280;68597;53.238;-1.418;2023-06-04T04:31:54;101847.19;;;11.69
79172;BMP280;68597;53.238;-1.418;2023-06-04T04:34:22;101843.88;;;11.76
79172;BMP280;68597;53.238;-1.418;2023-06-04T04:36:48;101844.66;;;11.82
79172;BMP280;68597;53.238;-1.418;2023-06-04T04:39:14;101845.41;;;11.88
79172;BMP280;68597;53.238;-1.418;2023-06-04T04:41:41;101843.13;;;11.92
79172;BMP280;68597;53.238;-1.418;2023-06-04T04:44:07;101848.22;;;11.99
79172;BMP280;68597;53.238;-1.418;2023-06-04T04:46:33;101842.34;;;12.03
79172;BMP280;68597;53.238;-1.418;2023-06-04T04:49:01;101845.13;;;12.09
79172;BMP280;68597;53.238;-1.418;2023-06-04T04:51:28;101841.59;;;12.14
79172;BMP280;68597;53.238;-1.418;2023-06-04T04:53:55;101847.69;;;12.18
79172;BMP280;68597;53.238;-1.418;2023-06-04T04:56:22;101852.50;;;12.23
79172;BMP280;68597;53.238;-1.418;2023-06-04T04:58:50;101862.97;;;12.28
79172;BMP280;68597;53.238;-1.418;2023-06-04T05:01:16;101861.94;;;12.31
79172;BMP280;68597;53.238;-1.418;2023-06-04T05:03:43;101849.69;;;12.34
79172;BMP280;68597;53.238;-1.418;2023-06-04T05:06:13;101850.19;;;12.38
79172;BMP280;68597;53.238;-1.418;2023-06-04T05:08:39;101854.25;;;12.42
79172;BMP280;68597;53.238;-1.418;2023-06-04T05:11:06;101855.25;;;12.45
79172;BMP280;68597;53.238;-1.418;2023-06-04T05:13:32;101867.00;;;12.49
79172;BMP280;68597;53.238;-1.418;2023-06-04T05:16:02;101855.78;;;12.54
79172;BMP280;68597;53.238;-1.418;2023-06-04T05:18:28;101853.47;;;12.58
79172;BMP280;68597;53.238;-1.418;2023-06-04T05:20:58;101834.66;;;12.48
79172;BMP280;68597;53.238;-1.418;2023-06-04T05:23:26;101852.16;;;12.65
79172;BMP280;68597;53.238;-1.418;2023-06-04T05:25:52;101861.31;;;12.71
79172;BMP280;68597;53.238;-1.418;2023-06-04T05:28:19;101861.81;;;12.75
79172;BMP280;68597;53.238;-1.418;2023-06-04T05:30:45;101875.03;;;12.80
79172;BMP280;68597;53.238;-1.418;2023-06-04T05:33:12;101874.00;;;12.83
79172;BMP280;68597;53.238;-1.418;2023-06-04T05:35:38;101866.09;;;12.87
79172;BMP280;68597;53.238;-1.418;2023-06-04T05:38:04;101867.09;;;12.90
79172;BMP280;68597;53.238;-1.418;2023-06-04T05:40:32;101862.78;;;12.94
79172;BMP280;68597;53.238;-1.418;2023-06-04T05:42:58;101864.78;;;12.99
79172;BMP280;68597;53.238;-1.418;2023-06-04T05:45:24;101864.50;;;13.03
79172;BMP280;68597;53.238;-1.418;2023-06-04T05:47:53;101864.25;;;13.06
79172;BMP280;68597;53.238;-1.418;2023-06-04T05:50:19;101863.19;;;13.09
79172;BMP280;68597;53.238;-1.418;2023-06-04T05:52:45;101864.69;;;13.16
79172;BMP280;68597;53.238;-1.418;2023-06-04T05:55:13;101871.31;;;13.19
79172;BMP280;68597;53.238;-1.418;2023-06-04T05:57:41;101870.78;;;13.26
79172;BMP280;68597;53.238;-1.418;2023-06-04T06:00:08;101862.06;;;13.29
79172;BMP280;68597;53.238;-1.418;2023-06-04T06:02:40;101856.94;;;13.33
79172;BMP280;68597;53.238;-1.418;2023-06-04T06:05:10;101879.34;;;13.39
79172;BMP280;68597;53.238;-1.418;2023-06-04T06:07:36;101881.38;;;13.44
79172;BMP280;68597;53.238;-1.418;2023-06-04T06:10:03;101866.03;;;13.45
79172;BMP280;68597;53.238;-1.418;2023-06-04T06:12:31;101874.19;;;13.54
79172;BMP280;68597;53.238;-1.418;2023-06-04T06:14:59;101870.31;;;13.57
79172;BMP280;68597;53.238;-1.418;2023-06-04T06:17:25;101875.13;;;13.62
79172;BMP280;68597;53.238;-1.418;2023-06-04T06:19:52;101873.59;;;13.61
79172;BMP280;68597;53.238;-1.418;2023-06-04T06:22:19;101882.75;;;13.67
79172;BMP280;68597;53.238;-1.418;2023-06-04T06:24:45;101882.97;;;13.69
79172;BMP280;68597;53.238;-1.418;2023-06-04T06:27:11;101886.81;;;13.72
79172;BMP280;68597;53.238;-1.418;2023-06-04T06:29:37;101883.69;;;13.75
79172;BMP280;68597;53.238;-1.418;2023-06-04T06:32:05;101882.88;;;13.80
79172;BMP280;68597;53.238;-1.418;2023-06-04T06:34:31;101881.34;;;13.85
79172;BMP280;68597;53.238;-1.418;2023-06-04T06:36:56;101885.41;;;13.89
79172;BMP280;68597;53.238;-1.418;2023-06-04T06:39:22;101865.84;;;13.78
79172;BMP280;68597;53.238;-1.418;2023-06-04T06:41:48;101876.41;;;13.96
79172;BMP280;68597;53.238;-1.418;2023-06-04T06:44:20;101888.41;;;13.97
79172;BMP280;68597;53.238;-1.418;2023-06-04T06:46:48;101882.47;;;14.00
79172;BMP280;68597;53.238;-1.418;2023-06-04T06:49:16;101872.78;;;14.01
79172;BMP280;68597;53.238;-1.418;2023-06-04T06:51:42;101879.38;;;14.09
79172;BMP280;68597;53.238;-1.418;2023-06-04T06:54:08;101881.88;;;14.13
79172;BMP280;68597;53.238;-1.418;2023-06-04T06:56:34;101877.25;;;14.15
79172;BMP280;68597;53.238;-1.418;2023-06-04T06:59:00;101884.88;;;14.20
79172;BMP280;68597;53.238;-1.418;2023-06-04T07:01:26;101886.84;;;14.26
79172;BMP280;68597;53.238;-1.418;2023-06-04T07:03:52;101885.53;;;14.32
79172;BMP280;68597;53.238;-1.418;2023-06-04T07:06:20;101882.66;;;14.38
79172;BMP280;68597;53.238;-1.418;2023-06-04T07:08:46;101882.84;;;14.45
79172;BMP280;68597;53.238;-1.418;2023-06-04T07:11:12;101874.34;;;14.51
79172;BMP280;68597;53.238;-1.418;2023-06-04T07:13:38;101877.34;;;14.53
79172;BMP280;68597;53.238;-1.418;2023-06-04T07:16:05;101884.75;;;14.56
79172;BMP280;68597;53.238;-1.418;2023-06-04T07:18:30;101873.97;;;14.60
79172;BMP280;68597;53.238;-1.418;2023-06-04T07:20:56;101880.59;;;14.62
79172;BMP280;68597;53.238;-1.418;2023-06-04T07:23:24;101881.81;;;14.67
79172;BMP280;68597;53.238;-1.418;2023-06-04T07:25:50;101882.50;;;14.73
79172;BMP280;68597;53.238;-1.418;2023-06-04T07:28:17;101889.09;;;14.75
79172;BMP280;68597;53.238;-1.418;2023-06-04T07:30:45;101878.09;;;14.77
79172;BMP280;68597;53.238;-1.418;2023-06-04T07:33:11;101877.25;;;14.83
79172;BMP280;68597;53.238;-1.418;2023-06-04T07:35:37;101866.78;;;14.83
79172;BMP280;68597;53.238;-1.418;2023-06-04T07:38:03;101873.19;;;15.02
79172;BMP280;68597;53.238;-1.418;2023-06-04T07:40:30;101875.59;;;15.11
79172;BMP280;68597;53.238;-1.418;2023-06-04T07:42:56;101878.81;;;15.21
79172;BMP280;68597;53.238;-1.418;2023-06-04T07:45:22;101873.31;;;15.28
79172;BMP280;68597;53.238;-1.418;2023-06-04T07:47:48;101887.75;;;15.38
79172;BMP280;68597;53.238;-1.418;2023-06-04T07:50:14;101885.00;;;15.70
79172;BMP280;68597;53.238;-1.418;2023-06-04T07:52:40;101884.63;;;16.18
79172;BMP280;68597;53.238;-1.418;2023-06-04T07:55:07;101897.22;;;16.70
79172;BMP280;68597;53.238;-1.418;2023-06-04T07:57:34;101883.50;;;17.00
79172;BMP280;68597;53.238;-1.418;2023-06-04T08:00:00;101870.03;;;17.06
79172;BMP280;68597;53.238;-1.418;2023-06-04T08:02:26;101889.47;;;17.30
79172;BMP280;68597;53.238;-1.418;2023-06-04T08:04:52;101878.72;;;17.49
79172;BMP280;68597;53.238;-1.418;2023-06-04T08:07:18;101880.91;;;17.85
79172;BMP280;68597;53.238;-1.418;2023-06-04T08:09:44;101898.91;;;18.23
79172;BMP280;68597;53.238;-1.418;2023-06-04T08:12:10;101889.69;;;18.58
79172;BMP280;68597;53.238;-1.418;2023-06-04T08:14:37;101887.03;;;18.60
79172;BMP280;68597;53.238;-1.418;2023-06-04T08:17:04;101889.22;;;18.47
79172;BMP280;68597;53.238;-1.418;2023-06-04T08:19:30;101885.59;;;18.31
79172;BMP280;68597;53.238;-1.418;2023-06-04T08:21:56;101897.78;;;18.26
79172;BMP280;68597;53.238;-1.418;2023-06-04T08:24:22;101894.06;;;18.31
79172;BMP280;68597;53.238;-1.418;2023-06-04T08:26:47;101894.88;;;18.47
79172;BMP280;68597;53.238;-1.418;2023-06-04T08:29:13;101886.31;;;18.67
79172;BMP280;68597;53.238;-1.418;2023-06-04T08:31:41;101892.25;;;18.92
79172;BMP280;68597;53.238;-1.418;2023-06-04T08:34:07;101875.91;;;19.13
79172;BMP280;68597;53.238;-1.418;2023-06-04T08:36:33;101877.03;;;19.33
79172;BMP280;68597;53.238;-1.418;2023-06-04T08:38:59;101858.56;;;19.32
79172;BMP280;68597;53.238;-1.418;2023-06-04T08:41:29;101882.34;;;19.59
79172;BMP280;68597;53.238;-1.418;2023-06-04T08:43:56;101887.47;;;19.60
79172;BMP280;68597;53.238;-1.418;2023-06-04T08:46:23;101880.63;;;19.56
79172;BMP280;68597;53.238;-1.418;2023-06-04T08:48:52;101888.19;;;19.46
79172;BMP280;68597;53.238;-1.418;2023-06-04T08:51:19;101877.81;;;19.26
79172;BMP280;68597;53.238;-1.418;2023-06-04T08:53:45;101882.53;;;19.38
79172;BMP280;68597;53.238;-1.418;2023-06-04T08:56:10;101891.06;;;19.61
79172;BMP280;68597;53.238;-1.418;2023-06-04T08:58:40;101881.22;;;19.77
79172;BMP280;68597;53.238;-1.418;2023-06-04T09:01:07;101884.22;;;19.94
79172;BMP280;68597;53.238;-1.418;2023-06-04T09:03:36;101877.00;;;20.08
79172;BMP280;68597;53.238;-1.418;2023-06-04T09:06:05;101882.84;;;20.10
79172;BMP280;68597;53.238;-1.418;2023-06-04T09:08:31;101882.84;;;20.10
79172;BMP280;68597;53.238;-1.418;2023-06-04T09:11:01;101889.47;;;20.20
79172;BMP280;68597;53.238;-1.418;2023-06-04T09:13:31;101877.31;;;20.27
79172;BMP280;68597;53.238;-1.418;2023-06-04T09:15:59;101888.31;;;20.23
79172;BMP280;68597;53.238;-1.418;2023-06-04T09:18:25;101877.34;;;20.20
79172;BMP280;68597;53.238;-1.418;2023-06-04T09:21:00;101885.47;;;20.23
79172;BMP280;68597;53.238;-1.418;2023-06-04T09:23:28;101889.03;;;20.32
79172;BMP280;68597;53.238;-1.418;2023-06-04T09:25:54;101859.69;;;20.37
79172;BMP280;68597;53.238;-1.418;2023-06-04T09:28:20;101875.09;;;20.66
79172;BMP280;68597;53.238;-1.418;2023-06-04T09:30:51;101861.22;;;20.70
79172;BMP280;68597;53.238;-1.418;2023-06-04T09:33:17;101874.03;;;20.86
79172;BMP280;68597;53.238;-1.418;2023-06-04T09:35:53;101869.75;;;21.02
79172;BMP280;68597;53.238;-1.418;2023-06-04T09:38:19;101876.13;;;21.10
79172;BMP280;68597;53.238;-1.418;2023-06-04T09:40:47;101875.34;;;21.17
79172;BMP280;68597;53.238;-1.418;2023-06-04T09:43:21;101873.72;;;21.31
79172;BMP280;68597;53.238;-1.418;2023-06-04T09:45:47;101871.72;;;21.41
79172;BMP280;68597;53.238;-1.418;2023-06-04T09:48:19;101873.50;;;21.54
79172;BMP280;68597;53.238;-1.418;2023-06-04T09:50:45;101874.47;;;21.74
79172;BMP280;68597;53.238;-1.418;2023-06-04T09:53:14;101877.34;;;21.91
79172;BMP280;68597;53.238;-1.418;2023-06-04T09:55:41;101885.56;;;22.04
79172;BMP280;68597;53.238;-1.418;2023-06-04T09:58:10;101880.13;;;22.15
79172;BMP280;68597;53.238;-1.418;2023-06-04T10:00:36;101874.75;;;22.19
79172;BMP280;68597;53.238;-1.418;2023-06-04T10:03:02;101875.78;;;22.24
79172;BMP280;68597;53.238;-1.418;2023-06-04T10:05:31;101883.19;;;22.27
79172;BMP280;68597;53.238;-1.418;2023-06-04T10:07:58;101870.09;;;22.24
79172;BMP280;68597;53.238;-1.418;2023-06-04T10:10:26;101869.78;;;22.20
79172;BMP280;68597;53.238;-1.418;2023-06-04T10:12:59;101873.81;;;22.34
79172;BMP280;68597;53.238;-1.418;2023-06-04T10:15:27;101878.75;;;22.60
79172;BMP280;68597;53.238;-1.418;2023-06-04T10:17:55;101878.03;;;22.86
79172;BMP280;68597;53.238;-1.418;2023-06-04T10:20:21;101879.56;;;23.07
79172;BMP280;68597;53.238;-1.418;2023-06-04T10:22:48;101874.81;;;23.19
79172;BMP280;68597;53.238;-1.418;2023-06-04T10:25:15;101882.69;;;23.28
79172;BMP280;68597;53.238;-1.418;2023-06-04T10:27:41;101882.69;;;23.37
79172;BMP280;68597;53.238;-1.418;2023-06-04T10:30:08;101875.66;;;23.48
79172;BMP280;68597;53.238;-1.418;2023-06-04T10:32:37;101873.72;;;23.60
79172;BMP280;68597;53.238;-1.418;2023-06-04T10:35:04;101874.38;;;23.68
79172;BMP280;68597;53.238;-1.418;2023-06-04T10:37:30;101891.16;;;23.83
79172;BMP280;68597;53.238;-1.418;2023-06-04T10:39:57;101891.03;;;23.81
79172;BMP280;68597;53.238;-1.418;2023-06-04T10:42:24;101884.00;;;23.82
79172;BMP280;68597;53.238;-1.418;2023-06-04T10:44:52;101882.16;;;23.77
79172;BMP280;68597;53.238;-1.418;2023-06-04T10:47:19;101890.44;;;23.83
79172;BMP280;68597;53.238;-1.418;2023-06-04T10:49:46;101885.63;;;23.85
79172;BMP280;68597;53.238;-1.418;2023-06-04T10:52:12;101870.75;;;23.96
79172;BMP280;68597;53.238;-1.418;2023-06-04T10:54:38;101863.53;;;23.95
79172;BMP280;68597;53.238;-1.418;2023-06-04T10:57:10;101875.53;;;24.22
79172;BMP280;68597;53.238;-1.418;2023-06-04T10:59:36;101887.09;;;24.34
79172;BMP280;68597;53.238;-1.418;2023-06-04T11:02:06;101885.72;;;24.44
79172;BMP280;68597;53.238;-1.418;2023-06-04T11:04:32;101863.94;;;24.39
79172;BMP280;68597;53.238;-1.418;2023-06-04T11:07:03;101886.22;;;24.72
79172;BMP280;68597;53.238;-1.418;2023-06-04T11:09:30;101883.03;;;24.87
79172;BMP280;68597;53.238;-1.418;2023-06-04T11:11:56;101888.44;;;24.92
79172;BMP280;68597;53.238;-1.418;2023-06-04T11:14:22;101880.94;;;24.87
79172;BMP280;68597;53.238;-1.418;2023-06-04T11:16:48;101877.53;;;24.70
79172;BMP280;68597;53.238;-1.418;2023-06-04T11:19:14;101883.72;;;24.66
79172;BMP280;68597;53.238;-1.418;2023-06-04T11:21:40;101874.25;;;24.64
79172;BMP280;68597;53.238;-1.418;2023-06-04T11:24:08;101876.03;;;24.69
79172;BMP280;68597;53.238;-1.418;2023-06-04T11:26:35;101872.13;;;24.74
79172;BMP280;68597;53.238;-1.418;2023-06-04T11:29:07;101886.84;;;24.80
79172;BMP280;68597;53.238;-1.418;2023-06-04T11:31:41;101879.59;;;24.79
79172;BMP280;68597;53.238;-1.418;2023-06-04T11:34:07;101881.69;;;24.88
79172;BMP280;68597;53.238;-1.418;2023-06-04T11:36:33;101880.09;;;25.06
79172;BMP280;68597;53.238;-1.418;2023-06-04T11:39:00;101882.84;;;25.25
79172;BMP280;68597;53.238;-1.418;2023-06-04T11:41:30;101877.78;;;25.14
79172;BMP280;68597;53.238;-1.418;2023-06-04T11:43:56;101886.84;;;25.10
79172;BMP280;68597;53.238;-1.418;2023-06-04T11:46:22;101883.66;;;25.16
79172;BMP280;68597;53.238;-1.418;2023-06-04T11:48:50;101877.53;;;25.31
79172;BMP280;68597;53.238;-1.418;2023-06-04T11:51:16;101886.06;;;25.41
79172;BMP280;68597;53.238;-1.418;2023-06-04T11:53:42;101890.47;;;25.32
79172;BMP280;68597;53.238;-1.418;2023-06-04T11:56:09;101886.66;;;25.39
79172;BMP280;68597;53.238;-1.418;2023-06-04T11:58:37;101877.41;;;25.50
79172;BMP280;68597;53.238;-1.418;2023-06-04T12:01:03;101887.03;;;25.55
79172;BMP280;68597;53.238;-1.418;2023-06-04T12:03:37;101873.47;;;25.55
79172;BMP280;68597;53.238;-1.418;2023-06-04T12:06:12;101889.97;;;25.45
79172;BMP280;68597;53.238;-1.418;2023-06-04T12:08:47;101889.97;;;25.45
79172;BMP280;68597;53.238;-1.418;2023-06-04T12:11:24;101885.03;;;25.36
79172;BMP280;68597;53.238;-1.418;2023-06-04T12:13:52;101883.13;;;25.29
79172;BMP280;68597;53.238;-1.418;2023-06-04T12:16:18;101884.56;;;25.40
79172;BMP280;68597;53.238;-1.418;2023-06-04T12:18:44;101876.94;;;25.54
79172;BMP280;68597;53.238;-1.418;2023-06-04T12:21:17;101880.63;;;25.66
79172;BMP280;68597;53.238;-1.418;2023-06-04T12:23:43;101879.03;;;25.74
79172;BMP280;68597;53.238;-1.418;2023-06-04T12:26:20;101870.88;;;25.59
79172;BMP280;68597;53.238;-1.418;2023-06-04T12:28:46;101878.50;;;25.45
79172;BMP280;68597;53.238;-1.418;2023-06-04T12:31:17;101882.59;;;25.42
79172;BMP280;68597;53.238;-1.418;2023-06-04T12:33:43;101877.41;;;25.50
79172;BMP280;68597;53.238;-1.418;2023-06-04T12:36:08;101875.66;;;25.45
79172;BMP280;68597;53.238;-1.418;2023-06-04T12:38:34;101877.41;;;25.50
79172;BMP280;68597;53.238;-1.418;2023-06-04T12:41:00;101865.28;;;25.61
79172;BMP280;68597;53.238;-1.418;2023-06-04T12:43:28;101868.06;;;25.71
79172;BMP280;68597;53.238;-1.418;2023-06-04T12:45:54;101840.19;;;25.71
79172;BMP280;68597;53.238;-1.418;2023-06-04T12:48:22;101858.97;;;25.95
79172;BMP280;68597;53.238;-1.418;2023-06-04T12:50:48;101862.47;;;26.05
79172;BMP280;68597;53.238;-1.418;2023-06-04T12:53:13;101858.13;;;26.04
79172;BMP280;68597;53.238;-1.418;2023-06-04T12:55:39;101860.25;;;26.16
79172;BMP280;68597;53.238;-1.418;2023-06-04T12:58:05;101858.56;;;26.34
79172;BMP280;68597;53.238;-1.418;2023-06-04T13:00:31;101870.16;;;26.36
79172;BMP280;68597;53.238;-1.418;2023-06-04T13:02:57;101872.72;;;26.32
79172;BMP280;68597;53.238;-1.418;2023-06-04T13:05:27;101849.03;;;26.20
79172;BMP280;68597;53.238;-1.418;2023-06-04T13:07:53;101839.09;;;26.21
79172;BMP280;68597;53.238;-1.418;2023-06-04T13:10:22;101862.56;;;26.52
79172;BMP280;68597;53.238;-1.418;2023-06-04T13:12:48;101857.59;;;26.64
79172;BMP280;68597;53.238;-1.418;2023-06-04T13:15:15;101843.38;;;26.43
79172;BMP280;68597;53.238;-1.418;2023-06-04T13:17:42;101861.03;;;26.28
79172;BMP280;68597;53.238;-1.418;2023-06-04T13:20:08;101861.50;;;26.13
79172;BMP280;68597;53.238;-1.418;2023-06-04T13:22:37;101836.03;;;25.95
79172;BMP280;68597;53.238;-1.418;2023-06-04T13:25:03;101817.09;;;25.90
79172;BMP280;68597;53.238;-1.418;2023-06-04T13:27:32;101833.03;;;25.93
79172;BMP280;68597;53.238;-1.418;2023-06-04T13:29:58;101822.75;;;25.79
79172;BMP280;68597;53.238;-1.418;2023-06-04T13:32:24;101822.75;;;25.79
79172;BMP280;68597;53.238;-1.418;2023-06-04T13:34:49;101848.53;;;26.12
79172;BMP280;68597;53.238;-1.418;2023-06-04T13:37:17;101844.69;;;26.19
79172;BMP280;68597;53.238;-1.418;2023-06-04T13:39:46;101845.09;;;26.25
79172;BMP280;68597;53.238;-1.418;2023-06-04T13:42:12;101850.34;;;26.40
79172;BMP280;68597;53.238;-1.418;2023-06-04T13:44:38;101839.84;;;26.44
79172;BMP280;68597;53.238;-1.418;2023-06-04T13:47:05;101842.13;;;26.57